Current Conditions
Mostly Clear
Conditions



Pressure
1005.92 (hPa) - 29.7 (inHG)
Visibility

10.0 (km) - 6.2 (miles)
Temperature
15  °C
Temperature
10  °C
Dewpoint
72  %
 Humidity
Wind Speed
14  km/h
8  kts
9  mph
4.0  m/s
Wind Direction
N
45°
E
90°
135°
S
180°
225°
W
270°
315°
 60°

East North
East
Airport Data
EDDR
Saarbr├╝cken Airport
Metar :EDDR 230150Z AUTO 06008KT CAVOK 15/10 Q1006
Mon 23rd May 03:50 am
Raw Metar Info
Raw METAR is the most common format in the world for the transmission of observational weather data. It is highly standardized through the International Civil Aviation Organization (ICAO), which allows it to be understood throughout most of the world.
API Info
Data Provided by
https://www.checkwx.com/weather/EDDR

Aviation Weather providing METAR, TAF, AIRMET, SIGMET and OUTLOOK Weather Reports
© Info
CSS/SVG/PHP scripts were developed by weather34.com for use in the weather34 template © 2015-2022

Guide Info provided by Metar-Wikipedia